Capitol Reef, Utah
Current Conditions -  °F | °C
As of 5:53 AM on Saturday 22 Nov 2014 (Local Time) from KBCE Reporting Station
Clear Clear  
Wind Chill:   Ceiling: Unl
Heat Index: 16°   Visibility: 10mi
Dew Point: 13°   Wind: 7mph
Humidity: 88%   Direction: 220°SW
Pressure: 30.11"   Gusts: NA
Location:  38.2517°N, 111.706°W
Report Text: KBCE 221253Z AUTO 22006KT 10SM CLR M09/M11 A3011 RMK AO2 SLP198 T10891106
Loading
Personal Weather Stations






























Interactive Weather Map New forecast layout! Learn more

10-Day Weather Forecast

Advertisements
Track Severe Weather on mobile